createdAt,value
2022-10-30T00:02:13.615Z,79.67
2022-10-30T00:04:40.179Z,79.97
2022-10-30T00:07:06.668Z,80.38
2022-10-30T00:09:33.160Z,80.99
2022-10-30T00:11:59.815Z,80.82
2022-10-30T00:14:26.279Z,79.59
2022-10-30T00:16:52.714Z,78.72
2022-10-30T00:19:19.278Z,78.87
2022-10-30T00:21:45.710Z,78.94
2022-10-30T00:24:12.227Z,79.96
2022-10-30T00:26:38.671Z,79.88
2022-10-30T00:29:05.128Z,80.13
2022-10-30T00:31:31.631Z,80.80
2022-10-30T00:33:58.133Z,80.43
2022-10-30T00:36:25.055Z,80.66
2022-10-30T00:38:51.572Z,80.19
2022-10-30T00:41:21.172Z,80.23
2022-10-30T00:43:48.040Z,79.32
2022-10-30T00:46:31.685Z,80.32
2022-10-30T00:49:17.215Z,78.90
2022-10-30T00:51:50.097Z,79.77
2022-10-30T00:54:18.161Z,77.95
2022-10-30T00:56:46.498Z,79.39
2022-10-30T00:59:17.253Z,79.00
2022-10-30T01:01:45.364Z,78.39
2022-10-30T01:04:12.945Z,77.84
2022-10-30T01:06:41.940Z,77.87
2022-10-30T01:09:08.772Z,77.87
2022-10-30T01:11:35.254Z,78.94
2022-10-30T01:14:05.307Z,78.45
2022-10-30T01:16:44.592Z,78.80
2022-10-30T01:19:38.586Z,78.55
2022-10-30T01:22:14.100Z,78.97
2022-10-30T01:24:58.125Z,78.20
2022-10-30T01:27:53.247Z,79.01
2022-10-30T01:30:48.694Z,78.99
2022-10-30T01:33:51.329Z,79.42
2022-10-30T01:36:28.417Z,79.26
2022-10-30T01:38:58.697Z,79.11
2022-10-30T01:41:25.395Z,79.67
2022-10-30T01:43:55.847Z,79.69
2022-10-30T01:46:42.245Z,79.82
2022-10-30T01:49:46.389Z,79.38
2022-10-30T01:52:19.751Z,79.80
2022-10-30T01:55:13.798Z,79.72
2022-10-30T01:57:57.578Z,79.03
2022-10-30T02:00:24.110Z,79.38
2022-10-30T02:02:52.281Z,80.29
2022-10-30T02:05:40.165Z,79.48
2022-10-30T02:08:07.533Z,79.28
2022-10-30T02:10:35.792Z,79.54
2022-10-30T02:13:02.424Z,79.70
2022-10-30T02:15:29.405Z,79.17
2022-10-30T02:17:56.810Z,79.56
2022-10-30T02:20:24.519Z,79.16
2022-10-30T02:22:54.466Z,79.98
2022-10-30T02:25:24.763Z,80.42
2022-10-30T02:27:51.213Z,81.32
2022-10-30T02:30:17.782Z,80.80
2022-10-30T02:32:44.309Z,78.66
2022-10-30T02:35:11.021Z,78.94
2022-10-30T02:37:37.465Z,78.67
2022-10-30T02:40:04.480Z,78.63
2022-10-30T02:42:30.915Z,79.00
2022-10-30T02:44:57.429Z,79.33
2022-10-30T02:47:23.861Z,79.11
2022-10-30T02:49:50.345Z,79.67
2022-10-30T02:52:16.779Z,79.91
2022-10-30T02:54:43.221Z,79.53
2022-10-30T02:57:10.349Z,79.58
2022-10-30T02:59:36.856Z,78.96
2022-10-30T03:02:03.405Z,78.86
2022-10-30T03:04:29.953Z,78.17
2022-10-30T03:06:56.386Z,79.05
2022-10-30T03:09:22.905Z,78.55
2022-10-30T03:11:49.375Z,79.09
2022-10-30T03:14:15.951Z,78.36
2022-10-30T03:16:42.403Z,79.80
2022-10-30T03:19:09.639Z,79.97
2022-10-30T03:21:36.153Z,79.91
2022-10-30T03:24:02.640Z,80.10
2022-10-30T03:26:29.151Z,79.40
2022-10-30T03:28:55.605Z,78.53
2022-10-30T03:31:22.735Z,79.46
2022-10-30T03:33:49.181Z,79.93
2022-10-30T03:36:16.004Z,79.30
2022-10-30T03:38:42.897Z,79.51
2022-10-30T03:41:09.477Z,79.99
2022-10-30T03:43:35.956Z,79.42
2022-10-30T03:46:02.480Z,80.66
2022-10-30T03:48:29.501Z,80.26
2022-10-30T03:50:57.471Z,80.66
2022-10-30T03:53:26.265Z,80.25
2022-10-30T03:55:53.534Z,80.60
2022-10-30T03:58:20.014Z,80.31
2022-10-30T04:00:46.553Z,80.85
2022-10-30T04:03:12.988Z,80.80
2022-10-30T04:05:39.595Z,80.80
2022-10-30T04:08:09.678Z,81.12
2022-10-30T04:10:36.245Z,79.86
2022-10-30T04:13:04.825Z,80.19
2022-10-30T04:15:31.570Z,80.48
2022-10-30T04:17:58.328Z,80.83
2022-10-30T04:20:26.139Z,80.60
2022-10-30T04:22:57.468Z,80.68
2022-10-30T04:25:24.133Z,80.18
2022-10-30T04:27:52.524Z,80.78
2022-10-30T04:30:24.125Z,80.58
2022-10-30T04:32:52.554Z,80.52
2022-10-30T04:35:20.852Z,80.15
2022-10-30T04:38:01.492Z,80.24
2022-10-30T04:40:29.952Z,79.85
2022-10-30T04:42:57.223Z,79.53
2022-10-30T04:45:24.098Z,80.50
2022-10-30T04:47:50.842Z,79.34
2022-10-30T04:50:17.948Z,79.91
2022-10-30T04:52:44.831Z,79.94
2022-10-30T04:55:11.666Z,79.74
2022-10-30T04:57:38.400Z,79.66
2022-10-30T05:00:06.314Z,79.63
2022-10-30T05:02:35.085Z,79.80
2022-10-30T05:05:01.739Z,80.29
2022-10-30T05:07:28.193Z,79.99
2022-10-30T05:09:54.643Z,79.34
2022-10-30T05:12:22.232Z,78.62
2022-10-30T05:14:48.690Z,79.68
2022-10-30T05:17:15.139Z,79.90
2022-10-30T05:19:41.592Z,79.07
2022-10-30T05:22:09.269Z,79.50
2022-10-30T05:24:35.801Z,78.71
2022-10-30T05:27:02.372Z,78.95
2022-10-30T05:29:28.805Z,79.19
2022-10-30T05:31:55.280Z,78.22
2022-10-30T05:34:21.753Z,79.37
2022-10-30T05:36:48.254Z,79.17
2022-10-30T05:39:14.709Z,79.43
2022-10-30T05:46:57.375Z,78.89
2022-10-30T05:49:23.817Z,79.09
2022-10-30T05:51:50.323Z,78.55
2022-10-30T05:54:16.746Z,80.40
2022-10-30T05:56:43.212Z,80.00
2022-10-30T05:59:09.798Z,79.05
2022-10-30T06:01:36.324Z,79.46
2022-10-30T06:04:02.891Z,79.77
2022-10-30T06:06:29.364Z,79.47
2022-10-30T06:08:55.968Z,80.34
2022-10-30T06:11:22.478Z,80.62
2022-10-30T06:13:49.114Z,80.17
2022-10-30T06:16:15.609Z,80.13
2022-10-30T06:18:42.069Z,81.00
2022-10-30T06:21:08.542Z,80.43
2022-10-30T06:23:35.012Z,79.82
2022-10-30T06:26:01.468Z,79.59
2022-10-30T06:28:27.921Z,78.79
2022-10-30T06:30:55.197Z,80.81
2022-10-30T06:33:21.699Z,80.22
2022-10-30T06:35:49.371Z,81.60
2022-10-30T06:38:17.103Z,81.76
2022-10-30T06:40:43.577Z,80.89
2022-10-30T06:43:10.010Z,81.26
2022-10-30T06:45:36.444Z,80.67
2022-10-30T06:48:03.136Z,80.85
2022-10-30T06:50:29.761Z,80.91
2022-10-30T06:52:56.257Z,82.18
2022-10-30T06:55:22.883Z,80.55
2022-10-30T06:57:57.122Z,80.53
2022-10-30T07:00:23.932Z,80.77
2022-10-30T07:03:01.178Z,80.85
2022-10-30T07:05:28.127Z,80.22
2022-10-30T07:07:56.702Z,80.95
2022-10-30T07:10:23.169Z,81.97
2022-10-30T07:12:54.220Z,80.63
2022-10-30T07:15:20.671Z,81.21
2022-10-30T07:17:55.323Z,80.91
2022-10-30T07:20:22.318Z,80.80
2022-10-30T07:22:48.789Z,81.36
2022-10-30T07:25:15.472Z,81.65
2022-10-30T07:27:43.733Z,81.41
2022-10-30T07:30:14.335Z,81.29
2022-10-30T07:32:41.089Z,81.65
2022-10-30T07:35:08.717Z,81.87
2022-10-30T07:37:35.233Z,81.65
2022-10-30T07:40:01.921Z,82.14
2022-10-30T07:42:28.389Z,81.27
2022-10-30T07:44:54.957Z,81.40
2022-10-30T07:47:21.528Z,82.29
2022-10-30T07:49:48.043Z,82.47
2022-10-30T07:52:17.172Z,82.85
2022-10-30T07:54:43.913Z,83.38
2022-10-30T07:57:10.367Z,81.92
2022-10-30T07:59:36.831Z,82.37
2022-10-30T08:02:03.459Z,82.51
2022-10-30T08:04:29.970Z,83.04
2022-10-30T08:06:56.437Z,82.74
2022-10-30T08:09:22.877Z,82.40
2022-10-30T08:11:49.332Z,83.02
2022-10-30T08:14:15.776Z,82.27
2022-10-30T08:16:42.222Z,81.99
2022-10-30T08:19:08.658Z,80.72
2022-10-30T08:21:35.145Z,81.23
2022-10-30T08:24:01.584Z,81.42
2022-10-30T08:26:28.091Z,80.90
2022-10-30T08:28:54.561Z,81.01
2022-10-30T08:31:21.062Z,81.79
2022-10-30T08:33:47.493Z,81.86
2022-10-30T08:36:13.961Z,82.56
2022-10-30T08:38:40.411Z,82.20
2022-10-30T08:41:06.955Z,81.58
2022-10-30T08:43:33.528Z,82.25
2022-10-30T08:46:00.007Z,82.22
2022-10-30T08:48:26.460Z,82.25
2022-10-30T08:50:52.961Z,80.46
2022-10-30T08:53:20.471Z,81.50
2022-10-30T08:55:47.416Z,80.52
2022-10-30T08:58:14.406Z,80.78
2022-10-30T09:00:40.908Z,80.43
2022-10-30T09:03:07.527Z,81.30
2022-10-30T09:05:34.098Z,80.31
2022-10-30T09:08:01.536Z,80.98
2022-10-30T09:10:29.222Z,81.53
2022-10-30T09:12:59.044Z,81.50
2022-10-30T09:15:26.593Z,80.38
2022-10-30T09:18:01.720Z,80.05
2022-10-30T09:20:29.327Z,80.07
2022-10-30T09:22:56.493Z,80.58
2022-10-30T09:25:23.186Z,80.21
2022-10-30T09:27:49.686Z,79.73
2022-10-30T09:30:16.289Z,81.04
2022-10-30T09:32:42.749Z,79.40
2022-10-30T09:35:09.365Z,79.75
2022-10-30T09:37:36.886Z,78.06
2022-10-30T09:40:05.200Z,78.19
2022-10-30T09:42:43.456Z,77.18
2022-10-30T09:45:34.254Z,78.19
2022-10-30T09:48:16.271Z,77.68
2022-10-30T09:50:57.818Z,77.32
2022-10-30T09:53:42.229Z,77.41
2022-10-30T09:56:13.432Z,76.03
2022-10-30T09:58:45.371Z,75.86
2022-10-30T10:01:39.151Z,74.65
2022-10-30T10:04:44.034Z,74.88
2022-10-30T10:07:20.398Z,75.67
2022-10-30T10:09:48.209Z,75.49
2022-10-30T10:13:00.123Z,74.17
2022-10-30T10:15:50.148Z,75.76
2022-10-30T10:18:20.514Z,74.64
2022-10-30T10:20:49.377Z,75.40
2022-10-30T10:23:38.694Z,74.67
2022-10-30T10:26:21.720Z,73.33
2022-10-30T10:28:56.934Z,72.91
2022-10-30T10:31:36.698Z,72.10
2022-10-30T10:34:19.236Z,73.77
2022-10-30T10:37:03.638Z,73.20
2022-10-30T10:39:56.285Z,71.93
2022-10-30T10:42:48.515Z,73.30
2022-10-30T10:45:17.907Z,72.43
2022-10-30T10:48:18.487Z,71.97
2022-10-30T10:50:49.154Z,70.89
2022-10-30T10:53:31.155Z,70.37
2022-10-30T10:55:59.948Z,72.61
2022-10-30T10:58:43.750Z,72.06
2022-10-30T11:01:23.684Z,69.95
2022-10-30T11:04:15.860Z,70.26
2022-10-30T11:06:44.175Z,71.99
2022-10-30T11:09:21.652Z,72.08
2022-10-30T11:11:48.985Z,70.52
2022-10-30T11:14:44.029Z,70.13
2022-10-30T11:17:20.978Z,72.84
2022-10-30T11:19:52.004Z,71.73
2022-10-30T11:22:26.010Z,70.89
2022-10-30T11:24:52.459Z,69.70
2022-10-30T11:27:30.987Z,70.14
2022-10-30T11:30:05.876Z,69.56
2022-10-30T11:32:33.856Z,68.12
2022-10-30T11:35:16.166Z,69.48
2022-10-30T11:37:43.862Z,69.74
2022-10-30T11:40:13.388Z,71.78
2022-10-30T11:42:44.238Z,69.36
2022-10-30T11:45:19.808Z,70.50
2022-10-30T11:47:46.864Z,69.94
2022-10-30T11:52:41.584Z,71.09
2022-10-30T11:55:23.477Z,70.37
2022-10-30T11:57:56.851Z,68.56
2022-10-30T12:00:26.647Z,67.19
2022-10-30T12:02:56.266Z,67.86
2022-10-30T12:05:26.005Z,68.93
2022-10-30T12:07:53.624Z,67.83
2022-10-30T12:10:30.440Z,68.44
2022-10-30T12:12:57.233Z,68.82
2022-10-30T12:15:27.602Z,68.11
2022-10-30T12:17:56.014Z,70.34
2022-10-30T12:20:22.546Z,70.01
2022-10-30T12:22:49.301Z,68.75
2022-10-30T12:25:31.443Z,68.72
2022-10-30T12:28:08.186Z,69.88
2022-10-30T12:30:42.865Z,71.54
2022-10-30T12:33:16.339Z,70.87
2022-10-30T12:35:58.091Z,69.48
2022-10-30T12:38:33.227Z,69.12
2022-10-30T12:41:25.681Z,70.62
2022-10-30T12:44:04.862Z,70.82
2022-10-30T12:46:42.535Z,69.80
2022-10-30T12:49:15.825Z,69.25
2022-10-30T12:52:08.363Z,69.78
2022-10-30T12:54:50.054Z,70.83
2022-10-30T12:57:25.353Z,72.02
2022-10-30T12:59:57.657Z,70.69
2022-10-30T13:02:30.355Z,70.74
2022-10-30T13:05:04.761Z,73.10
2022-10-30T13:07:43.957Z,71.29
2022-10-30T13:10:28.449Z,74.01
2022-10-30T13:13:01.965Z,72.38
2022-10-30T13:15:32.392Z,71.02
2022-10-30T13:18:00.913Z,71.24
2022-10-30T13:20:28.936Z,70.61
2022-10-30T13:23:05.492Z,69.30
2022-10-30T13:25:36.777Z,69.32
2022-10-30T13:28:20.987Z,70.92
2022-10-30T13:31:01.015Z,69.60
2022-10-30T13:33:35.720Z,71.28
2022-10-30T13:36:10.968Z,71.57
2022-10-30T13:39:00.717Z,72.37
2022-10-30T13:41:45.972Z,71.58
2022-10-30T13:44:33.906Z,70.61
2022-10-30T13:47:17.452Z,69.78
2022-10-30T13:50:03.242Z,69.44
2022-10-30T13:52:31.581Z,69.83
2022-10-30T13:55:02.796Z,69.09
2022-10-30T13:57:42.631Z,70.18
2022-10-30T14:00:20.397Z,68.55
2022-10-30T14:02:59.434Z,70.16
2022-10-30T14:05:56.630Z,68.66
2022-10-30T14:08:43.657Z,70.32
2022-10-30T14:11:12.658Z,69.51
2022-10-30T14:13:46.572Z,71.12
2022-10-30T14:16:42.084Z,71.62
2022-10-30T14:19:13.750Z,71.38
2022-10-30T14:21:53.975Z,71.33
2022-10-30T14:24:32.502Z,69.61
2022-10-30T14:27:05.140Z,70.53
2022-10-30T14:29:34.736Z,71.31
2022-10-30T14:32:13.283Z,71.50
2022-10-30T14:35:00.124Z,70.82
2022-10-30T14:37:31.185Z,72.17
2022-10-30T14:39:58.576Z,72.17
2022-10-30T14:42:42.209Z,71.29
2022-10-30T14:45:13.495Z,71.03
2022-10-30T14:47:51.275Z,71.06
2022-10-30T14:50:26.837Z,73.11
2022-10-30T14:53:05.048Z,73.49
2022-10-30T14:55:52.780Z,72.97
2022-10-30T14:58:27.075Z,72.58
2022-10-30T15:01:21.523Z,72.59
2022-10-30T15:03:57.116Z,72.83
2022-10-30T15:06:42.187Z,73.28
2022-10-30T15:09:26.997Z,74.13
2022-10-30T15:12:07.723Z,73.54
2022-10-30T15:14:53.679Z,73.98
2022-10-30T15:17:26.603Z,74.19
2022-10-30T15:19:53.097Z,75.40
2022-10-30T15:22:21.108Z,75.14
2022-10-30T15:24:48.445Z,75.28
2022-10-30T15:27:19.886Z,75.32
2022-10-30T15:29:54.546Z,75.66
2022-10-30T15:32:23.072Z,74.90
2022-10-30T15:35:00.812Z,76.29
2022-10-30T15:37:27.778Z,75.83
2022-10-30T15:40:19.968Z,75.77
2022-10-30T15:42:47.927Z,76.09
2022-10-30T15:45:20.219Z,75.60
2022-10-30T15:47:48.959Z,75.79
2022-10-30T15:50:16.701Z,76.12
2022-10-30T15:52:43.950Z,75.66
2022-10-30T15:55:16.172Z,75.42
2022-10-30T15:58:13.086Z,74.67
2022-10-30T16:00:37.197Z,74.95
2022-10-30T16:03:11.759Z,75.01
2022-10-30T16:05:38.263Z,75.32
2022-10-30T16:08:12.583Z,76.18
2022-10-30T16:10:41.760Z,76.19
2022-10-30T16:13:15.283Z,75.87
2022-10-30T16:15:41.809Z,75.16
2022-10-30T16:18:21.540Z,74.49
2022-10-30T16:20:53.523Z,75.20
2022-10-30T16:23:20.674Z,74.66
2022-10-30T16:25:48.116Z,75.37
2022-10-30T16:28:47.149Z,76.29
2022-10-30T16:31:16.063Z,75.10
2022-10-30T16:33:44.584Z,75.55
2022-10-30T16:36:17.013Z,75.79
2022-10-30T16:38:46.828Z,76.23
2022-10-30T16:41:13.819Z,75.32
2022-10-30T16:43:41.778Z,75.53
2022-10-30T16:46:14.317Z,75.19
2022-10-30T16:48:54.781Z,74.18
2022-10-30T16:51:21.579Z,74.85
2022-10-30T16:53:49.122Z,75.61
2022-10-30T16:56:24.940Z,75.22
2022-10-30T16:58:52.787Z,75.98
2022-10-30T17:01:24.256Z,75.25
2022-10-30T17:03:50.851Z,75.54
2022-10-30T17:06:26.469Z,75.88
2022-10-30T17:08:54.491Z,74.38
2022-10-30T17:11:35.156Z,74.64
2022-10-30T17:14:06.923Z,75.01
2022-10-30T17:16:35.991Z,75.49
2022-10-30T17:19:31.302Z,75.09
2022-10-30T17:22:00.079Z,74.89
2022-10-30T17:24:34.393Z,75.29
2022-10-30T17:27:03.099Z,74.67
2022-10-30T17:29:41.720Z,75.06
2022-10-30T17:32:25.767Z,75.40
2022-10-30T17:35:02.424Z,76.14
2022-10-30T17:37:29.271Z,78.81
2022-10-30T17:39:56.634Z,75.86
2022-10-30T17:42:23.099Z,76.78
2022-10-30T17:44:49.594Z,75.67
2022-10-30T17:47:20.637Z,75.58
2022-10-30T17:49:47.292Z,75.11
2022-10-30T17:52:15.986Z,75.48
2022-10-30T17:54:43.245Z,75.54
2022-10-30T17:57:11.288Z,76.33
2022-10-30T17:59:38.337Z,75.90
2022-10-30T18:02:20.556Z,75.60
2022-10-30T18:04:47.737Z,75.90
2022-10-30T18:07:15.573Z,75.59
2022-10-30T18:09:42.711Z,75.54
2022-10-30T18:12:16.600Z,75.28
2022-10-30T18:14:45.500Z,76.28
2022-10-30T18:17:12.160Z,75.53
2022-10-30T18:19:38.813Z,76.16
2022-10-30T18:22:05.296Z,75.99
2022-10-30T18:24:31.734Z,76.43
2022-10-30T18:26:58.595Z,75.91
2022-10-30T18:29:25.141Z,75.66
2022-10-30T18:31:51.693Z,75.63
2022-10-30T18:34:21.483Z,75.67
2022-10-30T18:36:51.051Z,75.72
2022-10-30T18:39:17.658Z,75.76
2022-10-30T18:41:45.964Z,76.01
2022-10-30T18:44:16.118Z,74.97
2022-10-30T18:46:43.228Z,75.30
2022-10-30T18:49:12.108Z,75.30
2022-10-30T18:51:39.724Z,76.33
2022-10-30T18:54:17.085Z,76.38
2022-10-30T18:56:44.272Z,76.41
2022-10-30T18:59:10.872Z,75.29
2022-10-30T19:01:38.648Z,75.13
2022-10-30T19:04:10.020Z,75.35
2022-10-30T19:06:39.133Z,74.51
2022-10-30T19:09:06.413Z,75.25
2022-10-30T19:11:36.459Z,75.80
2022-10-30T19:14:14.503Z,75.08
2022-10-30T19:16:42.011Z,75.45
2022-10-30T19:19:11.288Z,75.07
2022-10-30T19:21:40.078Z,75.19
2022-10-30T19:24:13.860Z,76.53
2022-10-30T19:26:42.284Z,75.89
2022-10-30T19:29:09.317Z,75.83
2022-10-30T19:31:37.071Z,76.13
2022-10-30T19:34:04.419Z,75.94
2022-10-30T19:36:37.305Z,75.75
2022-10-30T19:39:10.974Z,75.71
2022-10-30T19:41:38.898Z,75.47
2022-10-30T19:44:06.391Z,75.50
2022-10-30T19:46:33.803Z,75.48
2022-10-30T19:49:03.227Z,75.28
2022-10-30T19:51:30.422Z,75.00
2022-10-30T19:53:57.947Z,75.00
2022-10-30T19:56:25.574Z,75.81
2022-10-30T19:58:53.780Z,75.42
2022-10-30T20:01:21.240Z,75.46
2022-10-30T20:03:48.350Z,75.49
2022-10-30T20:06:15.858Z,75.97
2022-10-30T20:08:43.760Z,75.69
2022-10-30T20:11:11.958Z,75.51
2022-10-30T20:13:39.144Z,75.58
2022-10-30T20:16:06.561Z,75.77
2022-10-30T20:18:35.816Z,75.06
2022-10-30T20:21:06.299Z,75.11
2022-10-30T20:23:33.467Z,75.83
2022-10-30T20:26:24.946Z,75.76
2022-10-30T20:28:52.349Z,76.67
2022-10-30T20:31:19.672Z,77.58
2022-10-30T20:33:46.851Z,76.10
2022-10-30T20:36:17.752Z,75.74
2022-10-30T20:38:44.778Z,75.62
2022-10-30T20:41:23.865Z,75.92
2022-10-30T20:43:51.203Z,76.29
2022-10-30T20:46:18.312Z,76.13
2022-10-30T20:48:45.052Z,76.24
2022-10-30T20:51:11.889Z,75.66
2022-10-30T20:53:38.608Z,75.35
2022-10-30T20:56:05.435Z,75.13
2022-10-30T20:58:31.883Z,75.84
2022-10-30T21:00:59.276Z,75.83
2022-10-30T21:03:26.708Z,76.80
2022-10-30T21:05:58.585Z,76.84
2022-10-30T21:08:26.325Z,76.96
2022-10-30T21:10:52.785Z,75.86
2022-10-30T21:13:19.271Z,76.15
2022-10-30T21:15:45.753Z,77.70
2022-10-30T21:18:13.135Z,76.97
2022-10-30T21:20:41.145Z,78.10
2022-10-30T21:23:07.866Z,77.33
2022-10-30T21:25:34.374Z,77.71
2022-10-30T21:28:01.514Z,77.11
2022-10-30T21:30:28.383Z,78.33
2022-10-30T21:32:54.839Z,76.21
2022-10-30T21:35:21.366Z,77.34
2022-10-30T21:37:47.872Z,76.26
2022-10-30T21:40:14.381Z,76.23
2022-10-30T21:42:40.908Z,76.12
2022-10-30T21:45:08.438Z,75.70
2022-10-30T21:47:34.912Z,75.41
2022-10-30T21:50:04.806Z,75.95
2022-10-30T21:52:34.553Z,76.13
2022-10-30T21:55:00.997Z,75.67
2022-10-30T21:57:28.855Z,76.70
2022-10-30T21:59:56.064Z,76.96
2022-10-30T22:02:24.105Z,76.12
2022-10-30T22:04:50.579Z,77.16
2022-10-30T22:07:18.412Z,76.70
2022-10-30T22:09:45.044Z,77.17
2022-10-30T22:12:11.519Z,77.41
2022-10-30T22:14:37.971Z,77.08
2022-10-30T22:17:04.424Z,77.13
2022-10-30T22:19:30.858Z,75.56
2022-10-30T22:21:57.300Z,76.19
2022-10-30T22:24:23.793Z,76.20
2022-10-30T22:26:50.254Z,76.73
2022-10-30T22:29:16.743Z,77.57
2022-10-30T22:31:43.243Z,77.78
2022-10-30T22:34:09.670Z,76.90
2022-10-30T22:36:36.135Z,76.77
2022-10-30T22:39:12.697Z,77.20
2022-10-30T22:41:39.603Z,77.63
2022-10-30T22:44:08.569Z,77.02
2022-10-30T22:46:36.346Z,76.62
2022-10-30T22:49:03.084Z,76.94
2022-10-30T22:51:32.083Z,76.98
2022-10-30T22:54:01.137Z,75.94
2022-10-30T22:56:32.718Z,75.07
2022-10-30T22:59:13.028Z,76.52
2022-10-30T23:01:40.973Z,76.57
2022-10-30T23:04:10.259Z,77.30
2022-10-30T23:06:37.068Z,76.49
2022-10-30T23:09:07.234Z,76.31
2022-10-30T23:11:33.787Z,76.11
2022-10-30T23:14:00.460Z,76.59
2022-10-30T23:16:27.004Z,76.44
2022-10-30T23:18:57.986Z,76.95
2022-10-30T23:21:26.828Z,76.41
2022-10-30T23:23:53.791Z,76.39
2022-10-30T23:26:22.796Z,76.80
2022-10-30T23:28:51.488Z,75.94
2022-10-30T23:31:21.087Z,76.85
2022-10-30T23:33:48.725Z,76.18
2022-10-30T23:36:15.945Z,76.49
2022-10-30T23:38:42.447Z,76.00
2022-10-30T23:41:09.249Z,76.86
2022-10-30T23:43:35.768Z,76.20
2022-10-30T23:46:02.485Z,75.30
2022-10-30T23:48:29.311Z,75.86
2022-10-30T23:50:55.777Z,76.13
2022-10-30T23:53:22.273Z,76.29
2022-10-30T23:55:52.798Z,75.41
2022-10-30T23:58:19.699Z,75.71
